CPX462 Details

Departure: Newark Liberty International Airport (KEWR)
Arrival: Chicago/Rockford International Airport (KRFD)
Route: COATE Q436 RAAKK Q438 BERYS FNT J94 OBK V100 RFD


Current Weather Information
KEWR 231151Z 28009KT 10SM FEW090 FEW250 14/12 A2988 RMK AO2 SLP118 70052 T01390117 10167 20133 53028 $
KRFD 231154Z 21007KT 10SM FEW250 04/00 A2990 RMK AO2 SLP130 T00390000 10067 20039 51022